Hebertville, Canada
Current Conditions -  °F | °C
As of 11:41 AM on Saturday 22 Nov 2014 (Local Time) from CYRJ Reporting Station
Light Snow Light Snow  
Wind Chill:   Ceiling: 9000
Heat Index: 23°   Visibility: 6mi
Dew Point: 16°   Wind: 22mph
Humidity: 74%   Direction: 220°SW
Pressure: 29.7"   Gusts: 33mph
Location:  48.4°N, 71.68°W
Report Text: CYRJ 221641Z 22019G29KT 6SM -SN FEW020 OVC090 M05/M09 A2970 RMK SC2AC6 SLP071
Loading
Personal Weather Stations






























Interactive Weather Map New forecast layout! Learn more

10-Day Weather Forecast

Advertisements
Track Severe Weather on mobile